M I D A S
Marine Information and Data Acquisition System
Tripno 1652 of the Zeeleeuw from 2009-03-03 07:48:57 to 2009-03-03 15:26:41
Back to CruiseResearch ActivitiesStationsMapUnderway DataData graphs

EquipmentUnitsComment
TimeDGPSUTC
LatitudeDGPSDM.mWGS84
LongitudeDGPSDM.mWGS84
TemperatureSBE03/SBE38deg celciusITS90
ConductivitySBE21S/mITS90
SalinitySBE21 Practical Salinity Units
ChlorophylAChelsea fluorimeterg/lCalibrated in Aceton
Missing or incorrect values are displayed as -999
Sea surface data collected by the RV Zeeleeuw from 2009-03-03 07:41:01 to 2009-03-03 15:35:30
Time Latitude Longitude Temperature Conductivity Salinity ChlorophylA
2009-03-03 07:42:09 51°13.673 2°55.923 -999 0.085019 0.472873 -1.418457
2009-03-03 07:43:09 51°13.688 2°55.857 -999 0.085019 0.472899 -1.418457
2009-03-03 07:44:09 51°13.697 2°55.783 -999 0.085019 0.472907 -1.418457
2009-03-03 07:45:09 51°13.71 2°55.773 -999 0.085019 0.472916 -1.418457
2009-03-03 07:46:09 51°13.703 2°55.764 -999 0.084916 0.472356 -1.418457
2009-03-03 07:47:09 51°13.731 2°55.739 -999 0.084916 0.472398 -1.418457
2009-03-03 07:48:07 51°13.826 2°55.639 -999 0.084916 0.472416 -1.418457
2009-03-03 07:49:06 51°13.969 2°55.531 -999 0.084916 0.47239 -1.418457
2009-03-03 07:50:05 51°14.117 2°55.421 -999 0.084916 0.47239 -1.418457
2009-03-03 07:51:06 51°14.258 2°55.263 -999 0.084916 0.472416 -1.418457
2009-03-03 07:52:06 51°14.381 2°55.058 -999 0.084916 0.472467 -1.418457
2009-03-03 07:53:06 51°14.518 2°54.862 -999 0.084916 0.472526 -1.418457
2009-03-03 07:54:05 51°14.649 2°54.631 -999 0.084916 0.472543 -1.418457
2009-03-03 07:55:06 51°14.775 2°54.363 -999 0.084916 0.472569 -1.418457
2009-03-03 07:56:06 51°14.828 2°54.044 -999 0.084916 0.472612 -1.418457
2009-03-03 07:57:06 51°14.872 2°53.719 -999 0.084916 0.472697 -1.383633
2009-03-03 07:58:05 51°14.939 2°53.412 -999 0.084916 0.472774 -1.383633
2009-03-03 07:59:05 51°15.016 2°53.106 -999 0.084916 0.472817 -1.383633
2009-03-03 08:00:05 51°15.081 2°52.793 -999 0.084813 0.472291 -1.418457
2009-03-03 08:01:06 51°15.146 2°52.472 -999 0.084813 0.472402 -1.383633
2009-03-03 08:02:05 51°15.213 2°52.162 -999 0.084813 0.472513 -1.418457
2009-03-03 08:03:06 51°15.273 2°51.835 -999 0.084813 0.472572 -1.418457
2009-03-03 08:04:05 51°15.322 2°51.513 -999 0.084813 0.472641 -1.418457
2009-03-03 08:05:05 51°15.368 2°51.185 -999 0.084813 0.472709 -1.418457
2009-03-03 08:06:05 51°15.373 2°50.852 -999 0.084813 0.472795 -1.418457
2009-03-03 08:07:06 51°15.363 2°50.514 -999 0.084813 0.472906 -1.383633
2009-03-03 08:08:06 51°15.345 2°50.183 -999 0.084813 0.473 -1.383633
2009-03-03 08:09:06 51°15.327 2°49.852 -999 0.084813 0.473094 -1.418457
2009-03-03 08:10:05 51°15.302 2°49.529 -999 0.084813 0.473137 -1.383633
2009-03-03 08:11:05 51°15.282 2°49.198 -999 0.084813 0.47318 -1.383633
2009-03-03 08:12:05 51°15.264 2°48.867 -999 0.084813 0.473232 -1.383633
2009-03-03 08:13:05 51°15.25 2°48.534 -999 0.084813 0.473275 -1.383633
2009-03-03 08:14:05 51°15.234 2°48.201 -999 0.084813 0.473317 -1.383633
2009-03-03 08:15:05 51°15.212 2°47.871 -999 0.084813 0.473378 -1.418457
2009-03-03 08:16:05 51°15.196 2°47.541 -999 0.084813 0.473463 -1.418457
2009-03-03 08:17:05 51°15.212 2°47.209 -999 0.084813 0.473541 -1.383633
2009-03-03 08:18:06 51°15.227 2°46.868 -999 0.084813 0.473566 -1.383633
2009-03-03 08:19:05 51°15.237 2°46.536 -999 0.08471 0.472987 -1.418457
2009-03-03 08:20:05 51°15.237 2°46.199 -999 0.08471 0.473056 -1.383633
2009-03-03 08:21:05 51°15.237 2°45.859 -999 0.08471 0.473116 -1.383633
2009-03-03 08:22:05 51°15.235 2°45.522 -999 0.08471 0.473133 -1.383633
2009-03-03 08:23:06 51°15.233 2°45.18 -999 0.08471 0.473142 -1.383633
2009-03-03 08:24:06 51°15.233 2°44.841 -999 0.08471 0.47315 -1.383633
2009-03-03 08:25:06 51°15.229 2°44.499 -999 0.08471 0.473185 -1.383633
2009-03-03 08:26:06 51°15.231 2°44.155 -999 0.08471 0.473262 -1.383633
2009-03-03 08:27:05 51°15.228 2°43.822 -999 0.08471 0.473288 -1.418457
2009-03-03 08:28:05 51°15.224 2°43.487 -999 0.08471 0.473305 -1.383633
2009-03-03 08:29:05 51°15.223 2°43.15 -999 0.08471 0.473331 -1.383633
2009-03-03 08:30:05 51°15.227 2°42.812 -999 0.08471 0.473348 -1.383633
2009-03-03 08:31:05 51°15.221 2°42.474 -999 0.08471 0.473391 -1.383633
2009-03-03 08:32:05 51°15.212 2°42.138 -999 0.08471 0.473434 -1.383633
2009-03-03 08:33:05 51°15.205 2°41.802 -999 0.08471 0.473451 -1.383633
2009-03-03 08:34:06 51°15.199 2°41.46 -999 0.08471 0.473417 -1.383633
2009-03-03 08:35:05 51°15.193 2°41.13 -999 0.084607 0.472854 -1.383633
2009-03-03 08:36:05 51°15.187 2°40.793 -999 0.084607 0.472915 -1.383633
2009-03-03 08:37:06 51°15.183 2°40.452 -999 0.084607 0.472949 -1.418457
2009-03-03 08:38:06 51°15.174 2°40.118 -999 0.084607 0.472923 -1.383633
2009-03-03 08:39:06 51°15.164 2°39.783 -999 0.084607 0.472983 -1.383633
2009-03-03 08:40:06 51°15.154 2°39.446 -999 0.084607 0.473052 -1.383633
2009-03-03 08:41:06 51°15.144 2°39.108 -999 0.084607 0.473104 -1.383633
2009-03-03 08:42:06 51°15.182 2°38.781 -999 0.084607 0.473164 -1.383633
2009-03-03 08:43:06 51°15.259 2°38.461 -999 0.084607 0.473233 -1.383633
2009-03-03 08:44:06 51°15.359 2°38.164 -999 0.084607 0.473207 -1.383633
2009-03-03 08:45:05 51°15.463 2°37.872 -999 0.084607 0.473215 -1.383633
2009-03-03 08:46:05 51°15.562 2°37.566 -999 0.084607 0.473267 -1.383633
2009-03-03 08:47:05 51°15.664 2°37.259 -999 0.084607 0.473336 -1.383633
2009-03-03 08:48:05 51°15.737 2°36.936 -999 0.084607 0.473353 -1.383633
2009-03-03 08:49:05 51°15.791 2°36.602 -999 0.084607 0.473422 -1.383633
2009-03-03 08:50:06 51°15.851 2°36.271 -999 0.084607 0.473474 -1.383633
2009-03-03 08:51:05 51°16.008 2°36.062 -999 0.084607 0.473482 -1.383633
2009-03-03 08:52:05 51°16.2 2°35.924 -999 0.084607 0.473517 -1.383633
2009-03-03 08:53:06 51°16.405 2°35.836 -999 0.084504 0.472928 -1.383633
2009-03-03 08:54:06 51°16.604 2°35.763 -999 0.084504 0.472936 -1.383633
2009-03-03 08:55:06 51°16.8 2°35.675 -999 0.084504 0.472962 -1.383633
2009-03-03 08:56:06 51°16.994 2°35.565 -999 0.084504 0.472997 -1.383633
2009-03-03 08:57:06 51°17.184 2°35.431 -999 0.084504 0.473031 -1.383633
2009-03-03 08:58:06 51°17.376 2°35.29 -999 0.084504 0.47304 -1.383633
2009-03-03 08:59:06 51°17.559 2°35.116 -999 0.084504 0.473109 -1.383633
2009-03-03 09:00:05 51°17.732 2°34.92 -999 0.084504 0.473178 -1.383633
2009-03-03 09:01:05 51°17.852 2°34.649 -999 0.084504 0.473212 -1.383633
2009-03-03 09:02:05 51°17.905 2°34.315 -999 0.084504 0.473203 -1.383633
2009-03-03 09:03:06 51°17.971 2°33.982 -999 0.084504 0.473238 -1.383633
2009-03-03 09:04:06 51°18.043 2°33.656 -999 0.084504 0.473264 -1.383633
2009-03-03 09:05:06 51°18.112 2°33.329 -999 0.084504 0.473255 -1.383633
2009-03-03 09:06:06 51°18.184 2°33 -999 0.084504 0.473264 -1.383633
2009-03-03 09:07:05 51°18.255 2°32.686 -999 0.084504 0.473281 -1.383633
2009-03-03 09:08:06 51°18.327 2°32.363 -999 0.084504 0.473307 -1.383633
2009-03-03 09:09:06 51°18.397 2°32.047 -999 0.084504 0.473333 -1.383633
2009-03-03 09:10:06 51°18.466 2°31.727 -999 0.084504 0.47335 -1.383633
2009-03-03 09:11:06 51°18.536 2°31.407 -999 0.084504 0.473376 -1.383633
2009-03-03 09:12:06 51°18.606 2°31.084 -999 0.084504 0.47341 -1.383633
2009-03-03 09:13:06 51°18.676 2°30.763 -999 0.084504 0.473428 -1.383633
2009-03-03 09:14:06 51°18.743 2°30.442 -999 0.084504 0.473436 -1.383633
2009-03-03 09:15:06 51°18.81 2°30.119 -999 0.084504 0.473436 -1.348809
2009-03-03 09:16:05 51°18.876 2°29.798 -999 0.084504 0.473445 -1.383633
2009-03-03 09:17:06 51°18.95 2°29.457 -999 0.084504 0.473471 -1.383633
2009-03-03 09:18:06 51°19.023 2°29.113 -999 0.084504 0.473505 -1.383633
2009-03-03 09:19:06 51°19.065 2°28.772 -999 0.084504 0.473566 -1.348809
2009-03-03 09:20:06 51°18.965 2°28.484 -999 0.084401 0.47295 -1.383633
2009-03-03 09:21:06 51°18.832 2°28.225 -999 0.084401 0.47295 -1.383633
2009-03-03 09:22:06 51°18.671 2°28.007 -999 0.084401 0.472967 -1.383633
2009-03-03 09:23:06 51°18.514 2°27.783 -999 0.084401 0.472993 -1.383633
2009-03-03 09:24:06 51°18.357 2°27.557 -999 0.084401 0.472967 -1.383633
2009-03-03 09:25:06 51°18.199 2°27.326 -999 0.084401 0.47295 -1.383633
2009-03-03 09:26:06 51°18.039 2°27.096 -999 0.084401 0.472985 -1.383633
2009-03-03 09:27:06 51°17.879 2°26.87 -999 0.084401 0.473036 -1.383633
2009-03-03 09:28:06 51°17.719 2°26.642 -999 0.084401 0.473088 -1.348809
2009-03-03 09:29:06 51°17.555 2°26.422 -999 0.084401 0.473123 -1.383633
2009-03-03 09:30:06 51°17.395 2°26.193 -999 0.084401 0.473174 -1.383633
2009-03-03 09:31:05 51°17.237 2°25.969 -999 0.084401 0.473235 -1.383633
2009-03-03 09:32:05 51°17.074 2°25.743 -999 0.084401 0.473252 -1.383633
2009-03-03 09:33:05 51°16.908 2°25.526 -999 0.084401 0.473252 -1.383633
2009-03-03 09:34:05 51°16.711 2°25.458 -999 0.084401 0.473243 -1.383633
2009-03-03 09:35:05 51°16.512 2°25.439 -999 0.084401 0.473278 -1.348809
2009-03-03 09:36:06 51°16.349 2°25.427 -999 0.084401 0.473287 -1.383633
2009-03-03 09:37:05 51°16.253 2°25.347 -999 0.084401 0.473347 -1.383633
2009-03-03 09:38:06 51°16.252 2°25.259 -999 0.084401 0.473364 -1.383633
2009-03-03 09:39:06 51°16.261 2°25.238 -999 0.084401 0.473416 -1.383633
2009-03-03 09:40:05 51°16.271 2°25.219 -999 0.084401 0.473485 -1.348809
2009-03-03 09:41:05 51°16.28 2°25.203 -999 0.084401 0.473537 -1.383633
2009-03-03 09:42:05 51°16.289 2°25.19 -999 0.084401 0.473606 -1.348809
2009-03-03 09:43:05 51°16.297 2°25.177 -999 0.084401 0.473658 -1.348809
2009-03-03 09:44:05 51°16.305 2°25.16 -999 0.084401 0.473701 -1.383633
2009-03-03 09:45:05 51°16.353 2°25.091 -999 0.084401 0.473762 -1.383633
2009-03-03 09:46:06 51°16.479 2°25.09 -999 0.084401 0.473779 -1.383633
2009-03-03 09:47:05 51°16.655 2°25.083 -999 0.084401 0.473883 -1.348809
2009-03-03 09:48:05 51°16.851 2°25.081 -999 0.084401 0.474048 -1.383633
2009-03-03 09:49:05 51°17.044 2°25.098 -999 0.084401 0.47416 -1.348809
2009-03-03 09:50:05 51°17.235 2°25.109 -999 0.084401 0.474178 -1.383633
2009-03-03 09:51:06 51°17.402 2°25.219 -999 0.084401 0.474291 -1.383633
2009-03-03 09:52:05 51°17.511 2°25.44 -999 0.084401 0.474334 -1.383633
2009-03-03 09:53:06 51°17.616 2°25.679 -999 0.084401 0.474377 -1.383633
2009-03-03 09:54:05 51°17.719 2°25.911 -999 0.084504 0.47503 -1.348809
2009-03-03 09:55:06 51°17.828 2°26.15 -999 0.084504 0.475117 -1.348809
2009-03-03 09:56:05 51°17.937 2°26.379 -999 0.084504 0.475125 -1.383633
2009-03-03 09:57:06 51°18.046 2°26.619 -999 0.084504 0.475186 -1.383633
2009-03-03 09:58:05 51°18.154 2°26.852 -999 0.084504 0.475204 -1.348809
2009-03-03 09:59:06 51°18.278 2°27.081 -999 0.084504 0.475317 -1.348809
2009-03-03 10:00:05 51°18.404 2°27.298 -999 0.084504 0.475395 -1.348809
2009-03-03 10:01:06 51°18.523 2°27.535 -999 0.084504 0.475439 -1.348809
2009-03-03 10:02:05 51°18.633 2°27.774 -999 0.084504 0.4755 -1.383633
2009-03-03 10:03:06 51°18.751 2°28.016 -999 0.084504 0.475578 -1.383633
2009-03-03 10:04:05 51°18.864 2°28.256 -999 0.084504 0.475648 -1.383633
2009-03-03 10:05:06 51°18.977 2°28.508 -999 0.084504 0.4757 -1.383633
2009-03-03 10:06:05 51°19.041 2°28.775 -999 0.084504 0.475779 -1.383633
2009-03-03 10:07:06 51°19.018 2°29.071 -999 0.084504 0.475866 -1.348809
2009-03-03 10:08:06 51°18.98 2°29.338 -999 0.084504 0.475849 -1.383633
2009-03-03 10:09:06 51°18.933 2°29.606 -999 0.084504 0.475884 -1.348809
2009-03-03 10:10:05 51°18.885 2°29.87 -999 0.084504 0.475945 -1.383633
2009-03-03 10:11:06 51°18.828 2°30.155 -999 0.084504 0.476032 -1.348809
2009-03-03 10:12:05 51°18.777 2°30.441 -999 0.084504 0.476111 -1.348809
2009-03-03 10:13:06 51°18.705 2°30.731 -999 0.084504 0.476146 -1.348809
2009-03-03 10:14:05 51°18.625 2°31.006 -999 0.084504 0.476207 -1.348809
2009-03-03 10:15:06 51°18.543 2°31.291 -999 0.084504 0.476233 -1.348809
2009-03-03 10:16:05 51°18.468 2°31.562 -999 0.084504 0.476364 -1.348809
2009-03-03 10:17:06 51°18.389 2°31.842 -999 0.084504 0.476539 -1.348809
2009-03-03 10:18:05 51°18.313 2°32.114 -999 0.084504 0.476627 -1.348809
2009-03-03 10:19:05 51°18.236 2°32.388 -999 0.084504 0.476715 -1.348809
2009-03-03 10:20:06 51°18.159 2°32.667 -999 0.084504 0.476794 -1.348809
2009-03-03 10:21:05 51°18.09 2°32.939 -999 0.084504 0.476881 -1.348809
2009-03-03 10:22:06 51°18.03 2°33.226 -999 0.084504 0.476987 -1.348809
2009-03-03 10:23:06 51°17.974 2°33.507 -999 0.084504 0.477057 -1.348809
2009-03-03 10:24:05 51°17.916 2°33.78 -999 0.084504 0.477092 -1.348809
2009-03-03 10:25:06 51°17.856 2°34.063 -999 0.084504 0.477215 -1.348809
2009-03-03 10:26:05 51°17.795 2°34.341 -999 0.084504 0.477259 -1.383633
2009-03-03 10:27:06 51°17.753 2°34.638 -999 0.084504 0.477382 -1.348809
2009-03-03 10:28:05 51°17.72 2°34.925 -999 0.084504 0.477461 -1.348809
2009-03-03 10:29:06 51°17.689 2°35.214 -999 0.084504 0.477575 -1.348809
2009-03-03 10:30:05 51°17.66 2°35.49 -999 0.084401 0.477086 -1.348809
2009-03-03 10:31:06 51°17.575 2°35.736 -999 0.084504 0.477796 -1.348809
2009-03-03 10:32:05 51°17.427 2°35.908 -999 0.084401 0.477297 -1.348809
2009-03-03 10:33:06 51°17.243 2°36.032 -999 0.084401 0.477333 -1.348809
2009-03-03 10:34:06 51°17.047 2°36.104 -999 0.084401 0.477368 -1.348809
2009-03-03 10:35:05 51°16.849 2°36.163 -999 0.084401 0.477456 -1.348809
2009-03-03 10:36:06 51°16.645 2°36.226 -999 0.084401 0.477509 -1.348809
2009-03-03 10:37:05 51°16.445 2°36.285 -999 0.084401 0.477562 -1.348809
2009-03-03 10:38:06 51°16.24 2°36.351 -999 0.084401 0.477597 -1.348809
2009-03-03 10:39:05 51°16.041 2°36.414 -999 0.084401 0.477606 -1.348809
2009-03-03 10:40:06 51°15.838 2°36.483 -999 0.084298 0.477107 -1.348809
2009-03-03 10:41:05 51°15.643 2°36.545 -999 0.084298 0.47716 -1.348809
2009-03-03 10:42:06 51°15.442 2°36.611 -999 0.084298 0.477248 -1.348809
2009-03-03 10:43:05 51°15.249 2°36.676 -999 0.084298 0.477319 -1.348809
2009-03-03 10:44:06 51°15.05 2°36.736 -999 0.084196 0.476758 -1.348809
2009-03-03 10:45:05 51°14.858 2°36.801 -999 0.084196 0.476829 -1.348809
2009-03-03 10:46:09 51°14.657 2°36.877 -999 0.084196 0.476899 -1.348809
2009-03-03 10:47:08 51°14.466 2°36.937 -999 0.084196 0.476987 -1.348809
2009-03-03 10:48:06 51°14.274 2°36.994 -999 0.084093 0.476479 -1.348809
2009-03-03 10:49:06 51°14.072 2°37.026 -999 0.084093 0.476506 -1.348809
2009-03-03 10:50:06 51°13.869 2°37.055 -999 0.084093 0.476585 -1.348809
2009-03-03 10:51:06 51°13.669 2°37.09 -999 0.084093 0.476664 -1.313985
2009-03-03 10:52:05 51°13.479 2°37.144 -999 0.08399 0.47613 -1.348809
2009-03-03 10:53:06 51°13.284 2°37.19 -999 0.08399 0.476191 -1.348809
2009-03-03 10:54:05 51°13.089 2°37.235 -999 0.08399 0.476244 -1.348809
2009-03-03 10:55:06 51°12.884 2°37.285 -999 0.08399 0.476262 -1.348809
2009-03-03 10:56:06 51°12.677 2°37.306 -999 0.08399 0.476279 -1.313985
2009-03-03 10:57:05 51°12.472 2°37.257 -999 0.083887 0.475691 -1.313985
2009-03-03 10:58:06 51°12.263 2°37.17 -999 0.083887 0.475727 -1.348809
2009-03-03 10:59:06 51°12.058 2°37.073 -999 0.083887 0.475832 -1.313985
2009-03-03 11:00:05 51°11.854 2°36.983 -999 0.083887 0.475921 -1.348809
2009-03-03 11:01:06 51°11.646 2°36.875 -999 0.083887 0.475956 -1.313985
2009-03-03 11:02:06 51°11.446 2°36.737 -999 0.083784 0.475359 -1.313985
2009-03-03 11:03:06 51°11.248 2°36.588 -999 0.083784 0.47535 -1.313985
2009-03-03 11:04:06 51°11.053 2°36.43 -999 0.083784 0.475376 -1.313985
2009-03-03 11:05:05 51°10.861 2°36.278 -999 0.083784 0.475429 -1.313985
2009-03-03 11:06:06 51°10.661 2°36.122 -999 0.083681 0.474885 -1.313985
2009-03-03 11:07:06 51°10.465 2°35.97 -999 0.083681 0.474973 -1.313985
2009-03-03 11:08:06 51°10.27 2°35.822 -999 0.083681 0.475052 -1.313985
2009-03-03 11:09:06 51°10.068 2°35.751 -999 0.083681 0.47514 -1.313985
2009-03-03 11:10:06 51°9.921 2°35.917 -999 0.083681 0.47514 -1.313985
2009-03-03 11:11:06 51°9.932 2°36.19 -999 0.083681 0.47514 -1.313985
2009-03-03 11:12:05 51°10.005 2°36.452 -999 0.083578 0.47456 -1.313985
2009-03-03 11:13:06 51°10.081 2°36.723 -999 0.083578 0.474604 -1.348809
2009-03-03 11:14:06 51°10.119 2°37.009 -999 0.083578 0.474684 -1.313985
2009-03-03 11:15:05 51°10.133 2°37.298 -999 0.083578 0.474781 -1.313985
2009-03-03 11:16:06 51°10.146 2°37.597 -999 0.083578 0.474877 -1.313985
2009-03-03 11:17:06 51°10.154 2°37.892 -999 0.083578 0.474939 -1.313985
2009-03-03 11:18:05 51°10.154 2°38.184 -999 0.083578 0.475001 -1.313985
2009-03-03 11:19:06 51°10.163 2°38.484 -999 0.083578 0.475045 -1.313985
2009-03-03 11:20:05 51°10.174 2°38.773 -999 0.083578 0.475125 -1.313985
2009-03-03 11:21:06 51°10.173 2°39.073 -999 0.083475 0.474632 -1.313985
2009-03-03 11:22:05 51°10.164 2°39.365 -999 0.083475 0.474738 -1.313985
2009-03-03 11:23:06 51°10.152 2°39.665 -999 0.083475 0.474826 -1.313985
2009-03-03 11:24:06 51°10.14 2°39.962 -999 0.083475 0.474879 -1.313985
2009-03-03 11:25:05 51°10.13 2°40.255 -999 0.083475 0.474941 -1.313985
2009-03-03 11:26:06 51°10.119 2°40.559 -999 0.083475 0.474994 -1.313985
2009-03-03 11:27:06 51°10.113 2°40.857 -999 0.083475 0.475074 -1.313985
2009-03-03 11:28:05 51°10.131 2°41.146 -999 0.083475 0.475135 -1.313985
2009-03-03 11:29:06 51°10.165 2°41.441 -999 0.083475 0.475215 -1.313985
2009-03-03 11:30:06 51°10.202 2°41.729 -999 0.083475 0.475286 -1.313985
2009-03-03 11:31:05 51°10.227 2°41.994 -999 0.083475 0.475374 -1.313985
2009-03-03 11:32:06 51°10.245 2°42.229 -999 0.083475 0.475428 -1.313985
2009-03-03 11:33:06 51°10.264 2°42.417 -999 0.083475 0.475481 -1.313985
2009-03-03 11:34:05 51°10.299 2°42.486 -999 0.083475 0.475489 -1.313985
2009-03-03 11:35:06 51°10.325 2°42.486 -999 0.083475 0.475498 -1.279161
2009-03-03 11:36:06 51°10.344 2°42.469 -999 0.083475 0.475552 -1.313985
2009-03-03 11:37:05 51°10.356 2°42.445 -999 0.083475 0.475658 -1.279161
2009-03-03 11:38:06 51°10.364 2°42.42 -999 0.083475 0.475729 -1.279161
2009-03-03 11:39:06 51°10.366 2°42.397 -999 0.083372 0.4752 -1.313985
2009-03-03 11:40:05 51°10.373 2°42.362 -999 0.083372 0.475315 -1.279161
2009-03-03 11:41:06 51°10.432 2°42.33 -999 0.083372 0.475457 -1.313985
2009-03-03 11:42:06 51°10.49 2°42.313 -999 0.083372 0.475457 -1.279161
2009-03-03 11:43:06 51°10.525 2°42.278 -999 0.083372 0.47551 -1.279161
2009-03-03 11:44:06 51°10.571 2°42.27 -999 0.083372 0.475626 -1.313985
2009-03-03 11:45:05 51°10.586 2°42.386 -999 0.083372 0.475634 -1.279161
2009-03-03 11:46:05 51°10.635 2°42.599 -999 0.083372 0.475652 -1.279161
2009-03-03 11:47:05 51°10.705 2°42.862 -999 0.083372 0.475714 -1.279161
2009-03-03 11:48:06 51°10.776 2°43.136 -999 0.083372 0.475759 -1.279161
2009-03-03 11:49:06 51°10.845 2°43.407 -999 0.083372 0.475821 -1.279161
2009-03-03 11:50:06 51°10.94 2°43.66 -999 0.083269 0.475247 -1.313985
2009-03-03 11:51:06 51°11.037 2°43.91 -999 0.083269 0.475291 -1.279161
2009-03-03 11:52:05 51°11.134 2°44.155 -999 0.083269 0.475327 -1.279161
2009-03-03 11:53:06 51°11.235 2°44.409 -999 0.083269 0.475371 -1.279161
2009-03-03 11:54:06 51°11.334 2°44.659 -999 0.083269 0.475425 -1.279161
2009-03-03 11:55:05 51°11.437 2°44.898 -999 0.083166 0.474877 -1.279161
2009-03-03 11:56:05 51°11.54 2°45.141 -999 0.083166 0.474921 -1.279161
2009-03-03 11:57:05 51°11.628 2°45.395 -999 0.083166 0.474975 -1.313985
2009-03-03 11:58:06 51°11.701 2°45.665 -999 0.083166 0.47501 -1.279161
2009-03-03 11:59:06 51°11.777 2°45.928 -999 0.083166 0.475055 -1.279161
2009-03-03 12:00:05 51°11.856 2°46.183 -999 0.3996 2.490993 -0.826448
2009-03-03 12:01:05 51°11.933 2°46.446 -999 3.37789 33.035985 22.366372
2009-03-03 12:02:06 51°12.014 2°46.71 -999 3.252382 32.658178 22.227076
2009-03-03 12:03:06 51°12.079 2°46.98 -999 3.223598 32.521981 21.878835
2009-03-03 12:04:06 51°12.138 2°47.254 -999 3.216766 32.534975 21.530595
2009-03-03 12:05:05 51°12.193 2°47.525 -999 3.204238 32.466741 21.008234
2009-03-03 12:06:05 51°12.249 2°47.802 -999 3.189536 32.361064 20.416225
2009-03-03 12:07:06 51°12.306 2°48.083 -999 3.175352 32.248175 19.85904
2009-03-03 12:08:06 51°12.366 2°48.357 -999 3.161169 32.145998 19.406327
2009-03-03 12:09:06 51°12.429 2°48.63 -999 3.15268 32.083168 19.162559
2009-03-03 12:10:05 51°12.489 2°48.902 -999 3.144709 32.018814 18.953615
2009-03-03 12:11:05 51°12.545 2°49.182 -999 3.133736 31.926897 18.709846
2009-03-03 12:12:06 51°12.605 2°49.466 -999 3.118622 31.787259 18.222309
2009-03-03 12:13:06 51°12.665 2°49.743 -999 3.111893 31.733951 17.630301
2009-03-03 12:14:05 51°12.729 2°50.012 -999 3.10651 31.683148 17.45618
2009-03-03 12:15:06 51°12.803 2°50.285 -999 3.097401 31.60919 16.933819
2009-03-03 12:16:06 51°12.897 2°50.541 -999 3.089948 31.543953 16.481107
2009-03-03 12:17:06 51°12.999 2°50.784 -999 3.084669 31.496929 15.645329
2009-03-03 12:18:06 51°13.104 2°51.026 -999 3.080115 31.458964 15.053321
2009-03-03 12:19:05 51°13.208 2°51.262 -999 3.07556 31.41201 14.565784
2009-03-03 12:20:05 51°13.302 2°51.478 -999 3.074318 31.405153 14.113071
2009-03-03 12:21:06 51°13.391 2°51.621 -999 3.071523 31.380753 13.59071
2009-03-03 12:22:06 51°13.447 2°51.576 -999 3.065416 31.318927 13.312118
2009-03-03 12:23:06 51°13.468 2°51.516 -999 3.069039 31.354481 13.033525
2009-03-03 12:24:05 51°13.478 2°51.474 -999 3.068936 31.353312 12.894229
2009-03-03 12:25:05 51°13.482 2°51.441 -999 3.068832 31.355725 12.545989
2009-03-03 12:26:06 51°13.485 2°51.412 -999 3.073801 31.413658 12.406692
2009-03-03 12:27:05 51°13.487 2°51.387 -999 3.07349 31.411046 12.511165
2009-03-03 12:28:05 51°13.491 2°51.365 -999 3.074836 31.420868 12.162924
2009-03-03 12:29:05 51°13.492 2°51.32 -999 3.075871 31.433462 12.058452
2009-03-03 12:30:06 51°13.45 2°51.255 -999 3.081978 31.488098 11.710211
2009-03-03 12:31:05 51°13.407 2°51.292 -999 3.094503 31.615218 12.197748
2009-03-03 12:32:05 51°13.442 2°51.462 -999 3.096884 31.640319 12.789757
2009-03-03 12:33:06 51°13.532 2°51.718 -999 3.08881 31.5635 13.06835
2009-03-03 12:34:06 51°13.631 2°51.967 -999 3.079287 31.466675 12.894229
2009-03-03 12:35:05 51°13.734 2°52.207 -999 3.076285 31.441734 12.615637
2009-03-03 12:36:06 51°13.837 2°52.458 -999 3.066658 31.329379 12.232572
2009-03-03 12:37:06 51°13.937 2°52.709 -999 3.063967 31.303452 12.093276
2009-03-03 12:38:06 51°14.034 2°52.964 -999 3.059102 31.252969 11.745035
2009-03-03 12:39:05 51°14.13 2°53.215 -999 3.04958 31.151668 11.187851
2009-03-03 12:40:06 51°14.231 2°53.473 -999 3.047406 31.137802 10.909258
2009-03-03 12:41:06 51°14.333 2°53.727 -999 3.041093 31.07183 10.49137
2009-03-03 12:42:05 51°14.445 2°53.962 -999 3.032088 30.981675 10.212777
2009-03-03 12:43:05 51°14.572 2°54.186 -999 3.03095 30.992753 10.073481
2009-03-03 12:44:06 51°14.713 2°54.399 -999 3.037885 31.112103 9.794888
2009-03-03 12:45:06 51°14.84 2°54.563 -999 3.03478 31.1046 9.655592
2009-03-03 12:46:05 51°14.888 2°54.652 -999 3.028674 31.071992 9.516296
2009-03-03 12:47:05 51°14.931 2°54.763 -999 3.024534 31.036649 9.377
2009-03-03 12:48:06 51°15.013 2°54.929 -999 3.020084 31.004008 9.481472
2009-03-03 12:49:06 51°15.127 2°55.123 -999 3.014391 30.945671 9.411824
2009-03-03 12:50:05 51°15.253 2°55.338 -999 3.004456 30.854295 9.168055
2009-03-03 12:51:06 51°15.382 2°55.564 -999 2.992761 30.74377 8.819815
2009-03-03 12:52:06 51°15.518 2°55.772 -999 2.98086 30.630814 8.576047
2009-03-03 12:53:06 51°15.657 2°55.975 -999 2.971235 30.540098 8.297454
2009-03-03 12:54:05 51°15.792 2°56.178 -999 2.963577 30.482207 8.018862
2009-03-03 12:55:06 51°15.922 2°56.401 -999 2.957161 30.423403 7.740269
2009-03-03 12:56:06 51°16.04 2°56.635 -999 2.950435 30.368942 7.392029
2009-03-03 12:57:05 51°16.152 2°56.873 -999 2.947124 30.332191 7.14826
2009-03-03 12:58:05 51°16.266 2°57.114 -999 2.942881 30.292746 6.6259
2009-03-03 12:59:06 51°16.381 2°57.359 -999 2.941018 30.28472 6.347307
2009-03-03 13:00:06 51°16.49 2°57.605 -999 2.93988 30.287556 6.103539
2009-03-03 13:01:05 51°16.596 2°57.852 -999 2.943812 30.316482 6.068715
2009-03-03 13:02:06 51°16.707 2°58.105 -999 2.944951 30.335568 6.068715
2009-03-03 13:03:06 51°16.818 2°58.353 -999 2.943192 30.323463 5.790122
2009-03-03 13:04:06 51°16.929 2°58.598 -999 2.943916 30.330824 5.650826
2009-03-03 13:05:05 51°17.038 2°58.838 -999 2.942985 30.328133 5.546354
2009-03-03 13:06:06 51°17.141 2°59.097 -999 2.941536 30.316042 5.476706
2009-03-03 13:07:06 51°17.241 2°59.354 -999 2.940915 30.317759 5.372234
2009-03-03 13:08:05 51°17.338 2°59.611 -999 2.942778 30.326657 5.33741
2009-03-03 13:09:05 51°17.439 2°59.871 -999 2.943192 30.331366 5.372234
2009-03-03 13:10:06 51°17.544 3°0.134 -999 2.943916 30.335215 5.51153
2009-03-03 13:11:06 51°17.654 3°0.386 -999 2.943813 30.334916 5.476706
2009-03-03 13:12:05 51°17.759 3°0.638 -999 2.943606 30.332561 5.546354
2009-03-03 13:13:06 51°17.872 3°0.888 -999 2.942054 30.324563 5.407058
2009-03-03 13:14:06 51°17.981 3°1.138 -999 2.941743 30.321031 5.51153
2009-03-03 13:15:06 51°18.09 3°1.384 -999 2.938639 30.309414 5.720474
2009-03-03 13:16:05 51°18.196 3°1.629 -999 2.935431 30.301883 5.720474
2009-03-03 13:17:06 51°18.303 3°1.883 -999 2.935845 30.325961 5.894594
2009-03-03 13:18:06 51°18.408 3°2.136 -999 2.935535 30.325944 5.824946
2009-03-03 13:19:05 51°18.519 3°2.375 -999 2.933776 30.318212 5.650826
2009-03-03 13:20:05 51°18.628 3°2.62 -999 2.934914 30.335604 5.441882
2009-03-03 13:21:06 51°18.74 3°2.868 -999 2.936777 30.363916 5.093641
2009-03-03 13:22:06 51°18.846 3°3.115 -999 2.93657 30.373914 4.989169
2009-03-03 13:23:05 51°18.951 3°3.359 -999 2.936467 30.383336 4.884697
2009-03-03 13:24:05 51°19.059 3°3.606 -999 2.937088 30.391312 4.640929
2009-03-03 13:25:06 51°19.179 3°3.845 -999 2.938123 30.407555 4.431984
2009-03-03 13:26:06 51°19.312 3°4.061 -999 2.938536 30.415824 4.431984
2009-03-03 13:27:05 51°19.466 3°4.23 -999 2.939468 30.425581 4.39716
2009-03-03 13:28:06 51°19.631 3°4.387 -999 2.941848 30.452778 4.466808
2009-03-03 13:29:06 51°19.794 3°4.544 -999 2.943814 30.482344 4.536456
2009-03-03 13:30:06 51°19.954 3°4.707 -999 2.947953 30.528778 4.849873
2009-03-03 13:31:05 51°20.11 3°4.873 -999 2.950747 30.547389 5.023993
2009-03-03 13:32:05 51°20.271 3°5.035 -999 2.952093 30.557432 4.954345
2009-03-03 13:33:05 51°20.433 3°5.199 -999 2.956128 30.591104 4.954345
2009-03-03 13:34:05 51°20.592 3°5.368 -999 2.95944 30.629836 4.989169
2009-03-03 13:35:06 51°20.755 3°5.537 -999 2.961613 30.66805 5.023993
2009-03-03 13:36:06 51°20.909 3°5.72 -999 2.963476 30.689351 4.536456
2009-03-03 13:37:05 51°21.013 3°5.97 -999 2.966684 30.712639 4.22304
2009-03-03 13:38:06 51°21.098 3°6.252 -999 2.967409 30.73075 3.909623
2009-03-03 13:39:06 51°21.172 3°6.539 -999 2.96627 30.708799 3.700679
2009-03-03 13:40:06 51°21.234 3°6.837 -999 2.962234 30.659987 3.700679
2009-03-03 13:41:05 51°21.302 3°7.124 -999 2.959337 30.629544 3.596207
2009-03-03 13:42:06 51°21.371 3°7.425 -999 2.957267 30.606781 3.561383
2009-03-03 13:43:06 51°21.447 3°7.716 -999 2.954369 30.571003 3.631031
2009-03-03 13:44:05 51°21.524 3°8.001 -999 2.951886 30.543517 3.631031
2009-03-03 13:45:05 51°21.606 3°8.292 -999 2.949299 30.520175 3.700679
2009-03-03 13:46:06 51°21.7 3°8.583 -999 2.947953 30.503918 3.770327
2009-03-03 13:47:06 51°21.796 3°8.868 -999 2.94547 30.476434 3.839975
2009-03-03 13:48:05 51°21.891 3°9.149 -999 2.944331 30.458117 3.839975
2009-03-03 13:49:06 51°21.993 3°9.442 -999 2.942779 30.433311 3.839975
2009-03-03 13:50:06 51°22.094 3°9.733 -999 2.939467 30.384909 3.805151
2009-03-03 13:51:06 51°22.198 3°10.023 -999 2.935225 30.331213 3.839975
2009-03-03 13:52:05 51°22.297 3°10.317 -999 2.935535 30.327705 3.874799
2009-03-03 13:53:06 51°22.368 3°10.642 -999 2.934914 30.316222 3.839975
2009-03-03 13:54:06 51°22.424 3°10.961 -999 2.936363 30.336265 3.979271
2009-03-03 13:55:06 51°22.467 3°11.183 -999 2.93181 30.296665 4.014096
2009-03-03 13:56:06 51°22.498 3°11.333 -999 2.926429 30.231783 4.083744
2009-03-03 13:57:05 51°22.529 3°11.421 -999 2.925808 30.216803 4.04892
2009-03-03 13:58:06 51°22.566 3°11.466 -999 2.925394 30.21033 3.944447
2009-03-03 13:59:06 51°22.598 3°11.482 -999 2.925187 30.206217 3.839975
2009-03-03 14:00:05 51°22.618 3°11.494 -999 2.925187 30.200078 3.839975
2009-03-03 14:01:06 51°22.632 3°11.508 -999 2.924566 30.194757 3.735503
2009-03-03 14:02:05 51°22.645 3°11.528 -999 2.924463 30.193578 3.665855
2009-03-03 14:03:06 51°22.656 3°11.551 -999 2.924566 30.192127 3.631031
2009-03-03 14:04:06 51°22.67 3°11.569 -999 2.924566 30.188621 3.422087
2009-03-03 14:05:05 51°22.665 3°11.455 -999 2.92498 30.187202 3.352439
2009-03-03 14:06:06 51°22.6 3°11.198 -999 2.924359 30.173125 3.631031
2009-03-03 14:07:06 51°22.517 3°10.937 -999 2.926015 30.192855 3.944447
2009-03-03 14:08:06 51°22.433 3°10.673 -999 2.931189 30.262326 3.909623
2009-03-03 14:09:06 51°22.35 3°10.407 -999 2.942158 30.412078 3.909623
2009-03-03 14:10:05 51°22.269 3°10.151 -999 2.943503 30.412408 3.770327
2009-03-03 14:11:06 51°22.158 3°9.912 -999 2.938639 30.346365 3.700679
2009-03-03 14:12:06 51°22.045 3°9.677 -999 2.942054 30.387942 3.700679
2009-03-03 14:13:05 51°21.932 3°9.449 -999 2.940088 30.371697 3.665855
2009-03-03 14:14:06 51°21.82 3°9.205 -999 2.943503 30.415058 3.631031
2009-03-03 14:15:06 51°21.708 3°8.966 -999 2.946297 30.456662 3.735503
2009-03-03 14:16:06 51°21.598 3°8.723 -999 2.947746 30.485596 3.770327
2009-03-03 14:17:06 51°21.487 3°8.481 -999 2.948264 30.500369 3.770327
2009-03-03 14:18:05 51°21.38 3°8.242 -999 2.948885 30.513671 3.805151
2009-03-03 14:19:06 51°21.28 3°7.983 -999 2.949505 30.514553 3.735503
2009-03-03 14:20:06 51°21.199 3°7.711 -999 2.949506 30.525203 3.665855
2009-03-03 14:21:05 51°21.123 3°7.44 -999 2.950851 30.540575 3.596207
2009-03-03 14:22:05 51°21.04 3°7.171 -999 2.953024 30.563631 3.561383
2009-03-03 14:23:06 51°20.919 3°6.937 -999 2.955094 30.592622 3.456911
2009-03-03 14:24:06 51°20.792 3°6.717 -999 2.957577 30.61478 3.456911
2009-03-03 14:25:06 51°20.666 3°6.495 -999 2.958405 30.61979 3.561383
2009-03-03 14:26:06 51°20.539 3°6.273 -999 2.960682 30.645811 3.561383
2009-03-03 14:27:06 51°20.414 3°6.051 -999 2.96358 30.678932 3.735503
2009-03-03 14:28:05 51°20.292 3°5.834 -999 2.964821 30.685098 3.874799
2009-03-03 14:29:06 51°20.167 3°5.61 -999 2.962338 30.654931 4.04892
2009-03-03 14:30:05 51°20.046 3°5.394 -999 2.95975 30.62715 4.04892
2009-03-03 14:31:05 51°19.925 3°5.175 -999 2.956542 30.595834 4.188216
2009-03-03 14:32:05 51°19.804 3°4.957 -999 2.954576 30.575146 0.009329
2009-03-03 14:33:05 51°19.684 3°4.74 -999 2.048349 17.754223 -1.139864
2009-03-03 14:34:05 51°19.564 3°4.522 -999 0.208942 1.399534 -1.10504
2009-03-03 14:35:05 51°19.443 3°4.305 -999 0.077816 0.488833 -1.139864
2009-03-03 14:36:06 51°19.319 3°4.09 -999 0.062379 0.372512 -1.139864
2009-03-03 14:37:06 51°19.2 3°3.875 -999 0.0596 0.354047 -1.139864
2009-03-03 14:38:06 51°19.082 3°3.663 -999 0.057748 0.349129 -1.139864
2009-03-03 14:39:06 51°18.963 3°3.454 -999 0.056101 0.346582 -1.139864
2009-03-03 14:40:06 51°18.854 3°3.232 -999 0.054558 0.345659 -1.139864
2009-03-03 14:41:05 51°18.749 3°3.012 -999 0.053014 0.344348 -1.174688
2009-03-03 14:42:05 51°18.646 3°2.787 -999 0.051985 0.343318 -1.174688
2009-03-03 14:43:05 51°18.545 3°2.562 -999 0.051162 0.342312 -1.139864
2009-03-03 14:44:05 51°18.443 3°2.338 -999 0.050545 0.341736 -1.139864
2009-03-03 14:45:05 51°18.341 3°2.116 -999 0.049927 0.340939 -1.174688
2009-03-03 14:46:05 51°18.24 3°1.892 -999 0.049413 0.340772 -1.174688
2009-03-03 14:47:06 51°18.136 3°1.665 -999 0.048898 0.340247 -1.174688
2009-03-03 14:48:06 51°18.031 3°1.448 -999 0.04859 0.340555 -1.139864
2009-03-03 14:49:06 51°17.93 3°1.226 -999 0.048178 0.339565 -1.174688
2009-03-03 14:50:06 51°17.829 3°1.003 -999 0.047972 0.339985 -1.174688
2009-03-03 14:51:06 51°17.726 3°0.786 -999 0.047664 0.339483 -1.174688
2009-03-03 14:52:05 51°17.626 3°0.571 -999 0.047458 0.339493 -1.174688
2009-03-03 14:53:06 51°17.524 3°0.352 -999 0.047252 0.339239 -1.174688
2009-03-03 14:54:06 51°17.425 3°0.135 -999 0.047046 0.338907 -1.174688
2009-03-03 14:55:06 51°17.324 2°59.917 -999 0.046943 0.339171 -1.174688
2009-03-03 14:56:05 51°17.226 2°59.703 -999 0.046737 0.338518 -1.174688
2009-03-03 14:57:07 51°17.121 2°59.482 -999 0.046635 0.338559 -1.174688
2009-03-03 14:58:06 51°17.019 2°59.275 -999 0.046532 0.338513 -1.209513
2009-03-03 14:59:06 51°16.92 2°59.062 -999 0.046429 0.338389 -1.174688
2009-03-03 15:00:06 51°16.82 2°58.853 -999 0.046326 0.338029 -1.174688
2009-03-03 15:01:07 51°16.721 2°58.638 -999 0.046223 0.337686 -1.174688
2009-03-03 15:02:06 51°16.629 2°58.426 -999 0.046223 0.338096 -1.174688
2009-03-03 15:03:06 51°16.533 2°58.213 -999 0.04612 0.3377 -1.174688
2009-03-03 15:04:06 51°16.434 2°58.004 -999 0.04612 0.338059 -1.174688
2009-03-03 15:05:05 51°16.333 2°57.802 -999 0.046017 0.33761 -1.174688
2009-03-03 15:06:07 51°16.232 2°57.588 -999 0.045914 0.337107 -1.174688
2009-03-03 15:07:06 51°16.136 2°57.386 -999 0.045914 0.337379 -1.174688
2009-03-03 15:08:06 51°16.04 2°57.177 -999 0.045914 0.337616 -1.174688
2009-03-03 15:09:06 51°15.948 2°56.964 -999 0.045811 0.337015 -1.174688
2009-03-03 15:10:06 51°15.853 2°56.752 -999 0.045811 0.337209 -1.174688
2009-03-03 15:11:07 51°15.753 2°56.54 -999 0.045708 0.336581 -1.174688
2009-03-03 15:12:05 51°15.659 2°56.348 -999 0.045708 0.336748 -1.174688
2009-03-03 15:13:06 51°15.596 2°56.214 -999 0.045708 0.336906 -1.174688
2009-03-03 15:14:06 51°15.552 2°56.12 -999 0.045708 0.337056 -1.209513
2009-03-03 15:15:06 51°15.486 2°55.977 -999 0.045605 0.336401 -1.174688
2009-03-03 15:16:06 51°15.396 2°55.781 -999 0.045605 0.33648 -1.209513
2009-03-03 15:17:07 51°15.31 2°55.589 -999 0.045605 0.336568 -1.209513
2009-03-03 15:18:06 51°15.242 2°55.421 -999 0.045605 0.33663 -1.209513
2009-03-03 15:19:06 51°15.17 2°55.243 -999 0.045503 0.335965 -1.174688
2009-03-03 15:20:06 51°15.064 2°55.047 -999 0.045503 0.336053 -1.174688
2009-03-03 15:21:06 51°14.928 2°54.896 -999 0.045503 0.336123 -1.209513
2009-03-03 15:22:07 51°14.79 2°54.744 -999 0.045503 0.336194 -1.209513
2009-03-03 15:23:05 51°14.624 2°54.768 -999 0.0454 0.335502 -1.209513
2009-03-03 15:24:07 51°14.468 2°54.9 -999 0.0454 0.335502 -1.209513
2009-03-03 15:25:06 51°14.385 2°55.067 -999 0.0454 0.335554 -1.209513
2009-03-03 15:26:10 51°14.303 2°55.202 -999 0.0454 0.33559 -1.209513
2009-03-03 15:27:10 51°14.209 2°55.332 -999 0.0454 0.335634 -1.209513
2009-03-03 15:28:10 51°14.111 2°55.43 -999 0.0454 0.33566 -1.209513
2009-03-03 15:29:10 51°14.019 2°55.495 -999 0.045297 0.334932 -1.209513
2009-03-03 15:30:10 51°13.922 2°55.567 -999 0.045297 0.334985 -1.209513
2009-03-03 15:31:10 51°13.823 2°55.636 -999 0.045297 0.335038 -1.209513
2009-03-03 15:32:10 51°13.741 2°55.731 -999 0.045297 0.33509 -1.174688
2009-03-03 15:33:10 51°13.689 2°55.845 -999 0.045297 0.335126 -1.209513
2009-03-03 15:34:10 51°13.662 2°55.939 -999 0.045297 0.335126 -1.209513
2009-03-03 15:35:10 51°13.662 2°55.958 -999 0.045297 0.335134 -1.209513